Time;durP1;ratioP1;P1;durP2;ratioP2;P2;SDS_P1;SDS_P2;PMS_P1;PMS_P2;Temp;Humidity;BMP_temperature;BMP_pressure;BME280_temperature;BME280_humidity;BME280_pressure;Samples;Min_cycle;Max_cycle;Signal;HPM_P1;HPM_P2
2021/01/09 00:00:21;;;;;;;13.80;11.43;;;5.30;99.90;;;;;;5072765;28;20561;-61
2021/01/09 00:02:49;;;;;;;15.87;11.50;;;5.30;99.90;;;;;;5072811;28;20209;-62
2021/01/09 00:05:15;;;;;;;17.13;12.00;;;5.30;99.90;;;;;;5073057;28;20205;-61
2021/01/09 00:07:41;;;;;;;14.93;11.43;;;5.30;99.90;;;;;;5072731;28;20233;-61
2021/01/09 00:10:10;;;;;;;15.77;11.60;;;5.30;99.90;;;;;;5072876;28;20205;-61
2021/01/09 00:12:37;;;;;;;16.80;11.77;;;5.30;99.90;;;;;;5072589;28;20205;-61
2021/01/09 00:15:04;;;;;;;15.93;11.67;;;5.30;99.90;;;;;;5071946;28;20461;-61
2021/01/09 00:17:30;;;;;;;14.83;11.73;;;5.30;99.90;;;;;;5071974;28;20236;-61
2021/01/09 00:19:57;;;;;;;14.43;11.00;;;5.30;99.90;;;;;;5071891;28;20204;-63
2021/01/09 00:22:23;;;;;;;16.63;11.93;;;5.40;99.90;;;;;;5071911;28;20283;-62
2021/01/09 00:24:50;;;;;;;16.33;11.87;;;5.40;99.90;;;;;;5071903;28;20216;-61
2021/01/09 00:27:17;;;;;;;14.33;11.10;;;5.30;99.90;;;;;;5071980;28;20229;-62
2021/01/09 00:29:45;;;;;;;15.03;11.37;;;5.30;99.90;;;;;;5072082;28;20209;-61
2021/01/09 00:32:12;;;;;;;16.33;11.77;;;5.30;99.90;;;;;;5072085;28;20209;-61
2021/01/09 00:34:38;;;;;;;15.03;11.47;;;5.30;99.90;;;;;;5071517;28;20201;-61
2021/01/09 00:37:04;;;;;;;17.27;12.33;;;5.30;99.90;;;;;;5071900;28;20224;-58
2021/01/09 00:39:30;;;;;;;14.17;10.90;;;5.30;99.90;;;;;;5070879;28;20282;-57
2021/01/09 00:41:59;;;;;;;16.13;12.60;;;5.40;99.90;;;;;;5071475;28;20258;-57
2021/01/09 00:44:26;;;;;;;16.67;11.87;;;5.30;99.90;;;;;;5071415;28;20209;-57
2021/01/09 00:46:54;;;;;;;15.23;11.63;;;5.30;99.90;;;;;;5071210;28;20800;-58
2021/01/09 00:49:20;;;;;;;18.27;11.83;;;5.30;99.90;;;;;;5071278;28;20265;-58
2021/01/09 00:51:47;;;;;;;15.23;11.93;;;5.30;99.90;;;;;;5071403;28;20227;-58
2021/01/09 00:54:13;;;;;;;17.07;12.23;;;5.30;99.90;;;;;;5071531;28;20208;-57
2021/01/09 00:56:39;;;;;;;17.13;12.20;;;5.30;99.90;;;;;;5071537;28;20251;-57
2021/01/09 00:59:05;;;;;;;15.37;12.00;;;5.30;99.90;;;;;;5071223;28;20201;-57
2021/01/09 01:01:32;;;;;;;15.80;12.37;;;5.30;99.90;;;;;;5071392;28;20205;-57
2021/01/09 01:03:58;;;;;;;17.60;12.00;;;5.40;99.90;;;;;;5070959;28;20207;-57
2021/01/09 01:06:25;;;;;;;15.80;12.20;;;5.30;99.90;;;;;;5071355;28;20209;-57
2021/01/09 01:08:51;;;;;;;17.33;12.37;;;5.30;99.90;;;;;;5070772;28;20589;-58
2021/01/09 01:11:24;;;;;;;18.67;12.90;;;5.40;99.90;;;;;;5071069;28;20207;-57
2021/01/09 01:13:50;;;;;;;19.07;12.50;;;5.40;99.90;;;;;;5070990;28;20303;-57
2021/01/09 01:16:17;;;;;;;17.27;12.43;;;5.40;99.90;;;;;;5071567;28;20223;-58
2021/01/09 01:18:44;;;;;;;16.13;12.23;;;5.40;99.90;;;;;;5070628;28;20232;-57
2021/01/09 01:21:10;;;;;;;16.33;12.37;;;5.30;99.90;;;;;;5070440;28;20209;-57
2021/01/09 01:23:36;;;;;;;17.73;12.17;;;5.30;99.90;;;;;;5070850;28;20614;-60
2021/01/09 01:26:02;;;;;;;16.50;12.50;;;5.20;99.90;;;;;;5070575;28;20209;-57
2021/01/09 01:28:29;;;;;;;17.53;12.50;;;5.20;99.90;;;;;;5070534;28;20243;-57
2021/01/09 01:30:55;;;;;;;18.07;12.93;;;5.10;99.90;;;;;;5070751;28;20695;-57
2021/01/09 01:33:21;;;;;;;16.30;12.40;;;5.10;99.90;;;;;;5070733;28;20205;-58
2021/01/09 01:35:48;;;;;;;16.20;12.17;;;5.00;99.90;;;;;;5070474;28;20573;-58
2021/01/09 01:38:15;;;;;;;17.23;12.10;;;4.90;99.90;;;;;;5070592;28;20217;-57
2021/01/09 01:40:41;;;;;;;17.40;12.67;;;4.80;99.90;;;;;;5071169;28;20216;-57
2021/01/09 01:43:11;;;;;;;15.27;11.30;;;4.60;99.90;;;;;;5070947;28;20244;-58
2021/01/09 01:45:37;;;;;;;18.50;13.53;;;4.50;99.90;;;;;;5070503;28;20699;-58
2021/01/09 01:48:05;;;;;;;17.43;12.07;;;4.50;99.90;;;;;;5070410;28;20240;-57
2021/01/09 01:50:31;;;;;;;17.97;13.17;;;4.60;99.90;;;;;;5070925;28;20205;-57
2021/01/09 01:52:59;;;;;;;17.93;12.93;;;4.60;99.90;;;;;;5070871;28;20209;-57
2021/01/09 01:55:25;;;;;;;15.20;12.20;;;4.60;99.90;;;;;;5070526;28;20298;-57
2021/01/09 01:57:51;;;;;;;18.37;12.83;;;4.60;99.90;;;;;;5070430;28;20229;-57
2021/01/09 02:00:21;;;;;;;18.17;12.90;;;4.60;99.90;;;;;;5071265;28;20209;-57
2021/01/09 02:02:48;;;;;;;16.87;12.33;;;4.60;99.90;;;;;;5071014;28;20315;-57
2021/01/09 02:05:14;;;;;;;16.70;12.40;;;4.60;99.90;;;;;;5070777;28;20209;-58
2021/01/09 02:07:43;;;;;;;18.40;12.67;;;4.50;99.90;;;;;;5070396;28;20611;-57
2021/01/09 02:10:10;;;;;;;16.53;12.63;;;4.50;99.90;;;;;;5070767;28;20255;-57
2021/01/09 02:12:44;;;;;;;16.67;12.57;;;4.60;99.90;;;;;;5070866;28;20209;-58
2021/01/09 02:15:13;;;;;;;18.80;12.60;;;4.70;99.90;;;;;;5070466;28;20247;-57
2021/01/09 02:17:40;;;;;;;20.63;13.30;;;4.70;99.90;;;;;;5070978;28;20232;-57
2021/01/09 02:20:08;;;;;;;38.87;23.43;;;4.80;99.90;;;;;;5071099;28;20778;-58
2021/01/09 02:22:41;;;;;;;21.03;15.17;;;4.90;99.90;;;;;;5071033;28;20209;-57
2021/01/09 02:25:08;;;;;;;18.33;13.70;;;4.90;99.90;;;;;;5070876;28;20639;-57
2021/01/09 02:27:34;;;;;;;17.97;13.33;;;5.00;99.90;;;;;;5070370;28;20229;-57
2021/01/09 02:30:10;;;;;;;19.37;13.40;;;5.10;99.90;;;;;;5070613;28;20212;-57
2021/01/09 02:32:43;;;;;;;17.27;13.30;;;5.10;99.90;;;;;;5070521;28;20622;-57
2021/01/09 02:35:11;;;;;;;19.10;13.40;;;5.20;99.90;;;;;;5070342;28;20228;-57
2021/01/09 02:37:37;;;;;;;19.50;12.80;;;5.20;99.90;;;;;;5070599;28;20276;-57
2021/01/09 02:40:06;;;;;;;18.03;13.13;;;5.20;99.90;;;;;;5073708;28;20589;-57
2021/01/09 02:42:32;;;;;;;18.83;13.70;;;5.20;99.90;;;;;;5074656;28;20201;-58
2021/01/09 02:44:59;;;;;;;20.20;13.50;;;5.20;99.90;;;;;;5074136;28;20216;-57
2021/01/09 02:47:25;;;;;;;18.23;13.80;;;5.20;99.90;;;;;;5074117;28;20228;-58
2021/01/09 02:49:51;;;;;;;18.20;13.03;;;5.20;99.90;;;;;;5073687;28;20591;-57
2021/01/09 02:52:18;;;;;;;17.77;13.27;;;5.20;99.90;;;;;;5074087;28;20228;-58
2021/01/09 02:54:44;;;;;;;18.23;13.53;;;5.30;99.90;;;;;;5073703;28;20466;-57
2021/01/09 02:57:11;;;;;;;19.80;13.63;;;5.20;99.90;;;;;;5073975;28;20240;-57
2021/01/09 02:59:37;;;;;;;17.33;13.20;;;5.20;99.90;;;;;;5073782;28;20291;-57
2021/01/09 03:02:03;;;;;;;18.03;12.87;;;5.20;99.90;;;;;;5073857;28;20208;-57
2021/01/09 03:04:29;;;;;;;17.80;12.77;;;5.30;99.90;;;;;;5073610;28;20205;-57
2021/01/09 03:06:55;;;;;;;19.40;14.10;;;5.30;99.90;;;;;;5073798;28;20278;-57
2021/01/09 03:09:21;;;;;;;20.00;13.77;;;5.20;99.90;;;;;;5073730;28;20201;-57
2021/01/09 03:11:48;;;;;;;18.10;13.63;;;5.30;99.90;;;;;;5073847;28;20231;-57
2021/01/09 03:14:15;;;;;;;20.43;13.83;;;5.20;99.90;;;;;;5073234;28;20213;-58
2021/01/09 03:16:41;;;;;;;17.67;13.70;;;5.20;99.90;;;;;;5073484;28;20212;-57
2021/01/09 03:19:07;;;;;;;16.50;13.03;;;5.20;99.90;;;;;;5096503;22;20240;-59
2021/01/09 03:21:33;;;;;;;20.30;13.67;;;5.30;99.90;;;;;;5073452;28;20209;-59
2021/01/09 03:23:59;;;;;;;21.10;14.27;;;5.30;99.90;;;;;;5072778;28;20622;-59
2021/01/09 03:26:26;;;;;;;19.07;13.23;;;5.30;99.90;;;;;;5073260;28;20584;-59
2021/01/09 03:28:52;;;;;;;19.20;14.07;;;5.30;99.90;;;;;;5072845;28;20232;-59
2021/01/09 03:31:19;;;;;;;19.27;13.97;;;5.30;99.90;;;;;;5073248;28;20246;-60
2021/01/09 03:33:45;;;;;;;17.83;13.33;;;5.40;99.90;;;;;;5072943;28;20201;-60
2021/01/09 03:36:11;;;;;;;20.50;14.47;;;5.40;99.90;;;;;;5073256;28;20555;-61
2021/01/09 03:38:37;;;;;;;18.67;13.33;;;5.30;99.90;;;;;;5072262;28;20221;-61
2021/01/09 03:41:04;;;;;;;18.23;13.30;;;5.30;99.90;;;;;;5073017;28;20211;-60
2021/01/09 03:43:30;;;;;;;17.20;12.57;;;5.20;99.90;;;;;;5072751;28;20627;-59
2021/01/09 03:45:56;;;;;;;20.50;14.73;;;5.20;99.90;;;;;;5073224;28;20319;-61
2021/01/09 03:48:23;;;;;;;17.90;13.67;;;5.20;99.90;;;;;;5072782;28;20236;-61
2021/01/09 03:50:49;;;;;;;19.30;14.63;;;5.20;99.90;;;;;;5072378;28;20676;-59
2021/01/09 03:53:16;;;;;;;20.13;14.07;;;5.20;99.90;;;;;;5072673;28;20208;-59
2021/01/09 03:55:42;;;;;;;21.17;14.73;;;5.20;99.90;;;;;;5072541;28;20208;-59
2021/01/09 03:58:08;;;;;;;19.10;14.33;;;5.30;99.90;;;;;;5072307;28;20216;-59
2021/01/09 04:00:34;;;;;;;20.60;14.83;;;5.20;99.90;;;;;;5072205;28;20695;-61
2021/01/09 04:03:01;;;;;;;18.53;14.43;;;5.20;99.90;;;;;;5072411;28;20209;-59
2021/01/09 04:05:28;;;;;;;20.40;14.93;;;5.20;99.90;;;;;;5071840;28;20209;-59
2021/01/09 04:07:54;;;;;;;20.13;14.70;;;5.20;99.90;;;;;;5072014;28;20237;-59
2021/01/09 04:10:20;;;;;;;21.23;14.63;;;5.20;99.90;;;;;;5072441;28;20205;-62
2021/01/09 04:12:46;;;;;;;21.60;15.10;;;5.10;99.90;;;;;;5072133;28;20212;-59
2021/01/09 04:15:13;;;;;;;19.23;14.53;;;5.10;99.90;;;;;;5071692;28;20699;-59
2021/01/09 04:17:39;;;;;;;19.83;14.23;;;5.00;99.90;;;;;;5071936;28;20228;-59
2021/01/09 04:20:06;;;;;;;19.47;13.10;;;5.10;99.90;;;;;;5072347;28;20209;-59
2021/01/09 04:22:33;;;;;;;21.83;15.17;;;5.10;99.90;;;;;;5072935;28;20211;-59
2021/01/09 04:24:59;;;;;;;21.53;15.33;;;5.10;99.90;;;;;;5072357;28;20205;-59
2021/01/09 04:27:26;;;;;;;20.13;14.27;;;5.10;99.90;;;;;;5072445;28;20302;-60
2021/01/09 04:29:52;;;;;;;19.63;14.50;;;5.20;99.90;;;;;;5072633;28;20209;-59
2021/01/09 04:32:18;;;;;;;23.17;14.90;;;5.20;99.90;;;;;;5072781;28;20213;-60
2021/01/09 04:34:47;;;;;;;19.97;15.03;;;5.20;99.90;;;;;;5071510;28;20205;-60
2021/01/09 04:37:13;;;;;;;19.53;14.30;;;5.20;99.90;;;;;;5072053;28;20213;-60
2021/01/09 04:39:41;;;;;;;21.10;14.93;;;5.20;99.90;;;;;;5071493;28;20204;-60
2021/01/09 04:42:07;;;;;;;19.97;15.00;;;5.30;99.90;;;;;;5071489;28;20205;-60
2021/01/09 04:44:34;;;;;;;19.47;13.63;;;5.20;99.90;;;;;;5071387;28;20669;-60
2021/01/09 04:47:02;;;;;;;20.97;15.60;;;5.20;99.90;;;;;;5071584;28;20208;-60
2021/01/09 04:49:29;;;;;;;18.17;13.57;;;5.20;99.90;;;;;;5071393;28;20209;-60
2021/01/09 04:51:57;;;;;;;19.53;14.23;;;5.10;99.90;;;;;;5071929;28;20233;-60
2021/01/09 04:54:24;;;;;;;22.27;14.67;;;5.10;99.90;;;;;;5071221;28;20213;-60
2021/01/09 04:56:55;;;;;;;20.17;14.43;;;5.10;99.90;;;;;;5071388;28;20672;-60
2021/01/09 04:59:22;;;;;;;18.93;14.87;;;4.90;99.90;;;;;;5071042;28;20232;-60
2021/01/09 05:01:49;;;;;;;19.67;13.93;;;4.80;99.90;;;;;;5070540;28;20209;-60
2021/01/09 05:04:17;;;;;;;22.03;15.03;;;4.80;99.90;;;;;;5071486;28;20212;-60
2021/01/09 05:06:44;;;;;;;22.07;15.00;;;4.80;99.90;;;;;;5071706;28;20205;-60
2021/01/09 05:09:11;;;;;;;21.17;15.60;;;4.80;99.90;;;;;;5071197;28;20228;-60
2021/01/09 05:11:39;;;;;;;19.77;14.40;;;4.80;99.90;;;;;;5071298;28;20242;-60
2021/01/09 05:14:07;;;;;;;22.47;14.33;;;4.80;99.90;;;;;;5070938;28;20579;-60
2021/01/09 05:16:34;;;;;;;20.43;14.97;;;4.80;99.90;;;;;;5071545;28;20227;-60
2021/01/09 05:19:01;;;;;;;20.97;14.53;;;4.70;99.90;;;;;;5070989;28;20232;-60
2021/01/09 05:21:28;;;;;;;18.73;14.10;;;4.60;99.90;;;;;;5071183;28;20254;-60
2021/01/09 05:23:57;;;;;;;18.80;14.00;;;4.60;99.90;;;;;;5070706;28;20731;-60
2021/01/09 05:26:24;;;;;;;21.27;14.60;;;4.70;99.90;;;;;;5071234;28;20200;-60
2021/01/09 05:28:52;;;;;;;19.60;15.13;;;4.70;99.90;;;;;;5071092;28;20229;-60
2021/01/09 05:31:20;;;;;;;19.40;15.07;;;4.80;99.90;;;;;;5071456;28;20277;-63
2021/01/09 05:33:48;;;;;;;21.50;15.70;;;4.90;99.90;;;;;;5071180;28;20680;-61
2021/01/09 05:36:15;;;;;;;18.50;13.63;;;4.90;99.90;;;;;;5071513;28;20208;-61
2021/01/09 05:38:43;;;;;;;23.17;15.03;;;5.00;99.90;;;;;;5071313;28;20229;-61
2021/01/09 05:41:11;;;;;;;21.57;14.53;;;5.00;99.90;;;;;;5071988;28;20695;-61
2021/01/09 05:43:37;;;;;;;20.10;14.53;;;5.00;99.90;;;;;;5070947;28;20215;-61
2021/01/09 05:46:05;;;;;;;22.47;15.47;;;5.00;99.90;;;;;;5071195;28;20692;-61
2021/01/09 05:48:34;;;;;;;20.30;15.00;;;5.00;99.90;;;;;;5071117;28;20233;-66
2021/01/09 05:51:05;;;;;;;22.97;14.83;;;5.00;99.90;;;;;;5071510;28;20209;-61
2021/01/09 05:53:38;;;;;;;20.23;14.87;;;5.10;99.90;;;;;;5070865;28;20704;-61
2021/01/09 05:56:05;;;;;;;22.30;14.63;;;5.10;99.90;;;;;;5071040;28;20278;-61
2021/01/09 05:58:32;;;;;;;18.83;14.90;;;5.10;99.90;;;;;;5071107;28;20228;-61
2021/01/09 06:00:58;;;;;;;20.43;15.13;;;5.00;99.90;;;;;;5071232;28;20205;-61
2021/01/09 06:03:38;;;;;;;19.77;15.83;;;5.00;99.90;;;;;;5070814;28;20278;-61
2021/01/09 06:06:12;;;;;;;22.53;16.13;;;4.90;99.90;;;;;;5071162;28;20561;-61
2021/01/09 06:08:48;;;;;;;22.13;16.37;;;4.90;99.90;;;;;;5070511;28;20727;-61
2021/01/09 06:11:18;;;;;;;19.30;14.73;;;4.90;99.90;;;;;;5070959;28;20262;-61
2021/01/09 06:13:48;;;;;;;19.40;15.43;;;4.90;99.90;;;;;;5073639;28;20239;-61
2021/01/09 06:16:15;;;;;;;22.00;15.67;;;4.80;99.90;;;;;;5074750;28;20200;-61
2021/01/09 06:18:42;;;;;;;27.63;18.87;;;4.80;99.90;;;;;;5073921;28;20229;-61
2021/01/09 06:21:10;;;;;;;20.63;15.70;;;4.80;99.90;;;;;;5073973;28;20300;-61
2021/01/09 06:23:37;;;;;;;23.87;17.00;;;4.80;99.90;;;;;;5073951;28;20209;-61
2021/01/09 06:26:05;;;;;;;23.47;17.03;;;4.90;99.90;;;;;;5074364;28;20209;-61
2021/01/09 06:28:36;;;;;;;25.20;16.33;;;4.90;99.90;;;;;;5073970;28;20232;-60
2021/01/09 06:31:06;;;;;;;24.23;16.83;;;4.90;99.90;;;;;;5074208;28;20307;-60
2021/01/09 06:33:38;;;;;;;22.97;16.87;;;4.80;99.90;;;;;;5074088;28;20275;-62
2021/01/09 06:36:08;;;;;;;22.37;16.87;;;4.80;99.90;;;;;;5074245;28;20204;-60
2021/01/09 06:38:35;;;;;;;26.57;18.97;;;4.90;99.90;;;;;;5074414;28;20312;-60
2021/01/09 06:41:02;;;;;;;24.73;17.50;;;4.80;99.90;;;;;;5075304;28;20243;-60
2021/01/09 06:43:29;;;;;;;24.10;17.03;;;4.80;99.90;;;;;;5074139;28;20205;-60
2021/01/09 06:45:56;;;;;;;23.43;16.90;;;4.70;99.90;;;;;;5074138;28;20255;-60
2021/01/09 06:48:22;;;;;;;26.80;17.20;;;4.60;99.90;;;;;;5073854;28;20231;-60
2021/01/09 06:50:48;;;;;;;24.13;16.23;;;4.60;99.90;;;;;;5074569;28;20605;-60
2021/01/09 06:53:15;;;;;;;25.07;17.90;;;4.70;99.90;;;;;;5074848;28;20250;-61
2021/01/09 06:56:03;;;;;;;24.47;17.63;;;4.70;99.90;;;;;;5074278;28;20205;-61
2021/01/09 06:58:29;;;;;;;26.67;18.43;;;4.60;99.90;;;;;;5074141;28;20312;-61
2021/01/09 07:01:21;;;;;;;23.47;17.17;;;4.50;99.90;;;;;;5074980;28;20266;-61
2021/01/09 07:03:47;;;;;;;25.37;17.63;;;4.40;99.90;;;;;;5073789;28;20200;-61
2021/01/09 07:06:14;;;;;;;26.13;19.20;;;4.50;99.90;;;;;;5074482;28;20201;-61
2021/01/09 07:08:44;;;;;;;25.87;18.17;;;4.50;99.90;;;;;;5073867;28;20232;-60
2021/01/09 07:11:12;;;;;;;27.93;18.53;;;4.60;99.90;;;;;;5074117;28;20681;-61
2021/01/09 07:13:39;;;;;;;28.23;18.40;;;4.60;99.90;;;;;;5073737;28;20201;-59
2021/01/09 07:16:06;;;;;;;27.00;19.13;;;4.50;99.90;;;;;;5074261;28;20305;-59
2021/01/09 07:18:37;;;;;;;48.33;30.23;;;4.60;99.90;;;;;;5073483;28;20302;-59
2021/01/09 07:21:05;;;;;;;31.87;22.80;;;4.60;99.90;;;;;;5074255;28;20265;-59
2021/01/09 07:23:33;;;;;;;27.23;18.70;;;4.60;99.90;;;;;;5073384;28;20209;-59
2021/01/09 07:26:02;;;;;;;50.43;29.93;;;4.50;99.90;;;;;;5073753;28;20209;-60
2021/01/09 07:28:33;;;;;;;30.23;21.23;;;4.40;99.90;;;;;;5074327;28;20595;-60
2021/01/09 07:31:03;;;;;;;26.37;18.67;;;4.50;99.90;;;;;;5074802;28;20208;-60
2021/01/09 07:33:32;;;;;;;52.17;37.97;;;4.50;99.90;;;;;;5073055;28;20300;-60
2021/01/09 07:35:59;;;;;;;30.43;22.43;;;4.60;99.90;;;;;;5073081;28;20259;-60
2021/01/09 07:38:25;;;;;;;30.87;20.30;;;4.60;99.90;;;;;;5072756;28;20282;-60
2021/01/09 07:40:53;;;;;;;27.70;18.87;;;4.60;99.90;;;;;;5073375;28;20266;-60
2021/01/09 07:43:38;;;;;;;31.43;19.90;;;4.60;99.90;;;;;;5072747;28;20587;-61
2021/01/09 07:46:23;;;;;;;29.40;19.30;;;4.60;99.90;;;;;;5072729;28;20617;-59
2021/01/09 07:48:50;;;;;;;25.97;18.43;;;4.70;99.90;;;;;;5072735;28;20282;-59
2021/01/09 07:51:17;;;;;;;27.67;18.43;;;4.70;99.90;;;;;;5073120;28;20282;-60
2021/01/09 07:53:45;;;;;;;26.53;18.87;;;4.60;99.90;;;;;;5072893;28;20258;-60
2021/01/09 07:56:12;;;;;;;25.83;19.03;;;4.60;99.90;;;;;;5073136;28;20291;-60
2021/01/09 07:58:45;;;;;;;28.13;19.93;;;4.70;99.90;;;;;;5072891;28;20218;-60
2021/01/09 08:01:12;;;;;;;36.90;22.70;;;4.70;99.90;;;;;;5073495;28;20213;-59
2021/01/09 08:03:39;;;;;;;25.70;17.33;;;4.70;99.90;;;;;;5073350;28;20204;-60
2021/01/09 08:06:05;;;;;;;31.90;21.23;;;4.70;99.90;;;;;;5073520;28;20283;-60
2021/01/09 08:08:32;;;;;;;25.77;18.37;;;4.70;99.90;;;;;;5072814;28;20241;-60
2021/01/09 08:11:02;;;;;;;28.33;19.63;;;4.60;99.90;;;;;;5073499;28;20201;-60
2021/01/09 08:13:28;;;;;;;27.30;20.17;;;4.70;99.90;;;;;;5072487;28;20212;-59
2021/01/09 08:15:55;;;;;;;26.37;19.73;;;4.70;99.90;;;;;;5073015;28;20200;-59
2021/01/09 08:18:22;;;;;;;30.80;20.47;;;4.70;99.90;;;;;;5072722;28;20225;-61
2021/01/09 08:20:49;;;;;;;29.80;20.63;;;4.80;99.90;;;;;;5072793;28;20254;-60
2021/01/09 08:23:15;;;;;;;37.13;22.63;;;4.70;99.90;;;;;;5072676;28;20669;-60
2021/01/09 08:25:43;;;;;;;28.37;18.93;;;4.80;99.90;;;;;;5072794;28;20204;-60
2021/01/09 08:28:10;;;;;;;26.77;18.20;;;4.80;99.90;;;;;;5071601;28;20628;-63
2021/01/09 08:30:38;;;;;;;27.80;18.90;;;4.60;99.90;;;;;;5071615;28;20692;-63
2021/01/09 08:33:06;;;;;;;26.80;18.00;;;4.40;99.90;;;;;;5071718;28;20669;-61
2021/01/09 08:35:33;;;;;;;26.43;19.17;;;4.30;99.90;;;;;;5071500;28;20689;-62
2021/01/09 08:38:00;;;;;;;25.43;19.20;;;4.40;99.90;;;;;;5071691;28;20232;-61
2021/01/09 08:40:27;;;;;;;27.00;18.50;;;4.30;99.90;;;;;;5071523;28;20211;-63
2021/01/09 08:43:04;;;;;;;25.67;18.37;;;4.20;99.90;;;;;;5071819;28;20209;-62
2021/01/09 08:45:43;;;;;;;24.87;18.37;;;4.10;99.90;;;;;;5071441;28;20295;-62
2021/01/09 08:48:13;;;;;;;30.87;19.50;;;3.90;99.90;;;;;;5071266;28;20236;-62
2021/01/09 08:50:46;;;;;;;29.83;19.33;;;3.70;99.90;;;;;;5071958;28;20220;-61
2021/01/09 08:53:14;;;;;;;27.90;18.87;;;3.70;99.90;;;;;;5071318;28;20259;-62
2021/01/09 08:55:42;;;;;;;28.23;19.50;;;3.70;99.90;;;;;;5071487;28;20209;-61
2021/01/09 08:58:11;;;;;;;26.60;18.37;;;3.70;99.90;;;;;;5071263;28;20263;-64
2021/01/09 09:00:37;;;;;;;28.17;19.73;;;3.70;99.90;;;;;;5072441;28;20205;-58
2021/01/09 09:03:06;;;;;;;28.73;19.17;;;3.60;99.90;;;;;;5072494;28;20205;-59
2021/01/09 09:05:34;;;;;;;31.23;19.20;;;3.40;99.90;;;;;;5072037;28;20205;-58
2021/01/09 09:08:03;;;;;;;28.33;19.90;;;3.30;99.90;;;;;;5071836;28;20237;-59
2021/01/09 09:10:31;;;;;;;29.63;19.57;;;3.30;99.90;;;;;;5072054;28;20209;-58
2021/01/09 09:13:16;;;;;;;29.23;20.00;;;3.30;99.90;;;;;;5072246;28;20287;-59
2021/01/09 09:15:42;;;;;;;30.63;22.27;;;3.30;99.90;;;;;;5072042;28;20200;-58
2021/01/09 09:18:09;;;;;;;30.67;21.23;;;3.40;99.90;;;;;;5094885;22;20232;-62
2021/01/09 09:20:38;;;;;;;36.33;23.27;;;3.50;99.90;;;;;;5071960;28;20211;-61
2021/01/09 09:23:23;;;;;;;38.17;24.30;;;3.60;99.90;;;;;;5071708;28;20201;-62
2021/01/09 09:26:06;;;;;;;35.57;24.43;;;3.80;99.90;;;;;;5071429;28;20201;-62
2021/01/09 09:28:46;;;;;;;36.67;24.73;;;4.00;99.90;;;;;;5071183;28;20294;-62
2021/01/09 09:31:23;;;;;;;39.07;23.77;;;4.10;99.90;;;;;;5071673;28;20209;-62
2021/01/09 09:33:59;;;;;;;38.87;25.13;;;4.30;99.90;;;;;;5071398;28;20201;-59
2021/01/09 09:36:27;;;;;;;34.60;22.33;;;4.50;99.90;;;;;;5071268;28;20285;-60
2021/01/09 09:38:54;;;;;;;33.57;22.70;;;4.60;99.90;;;;;;5070715;28;20225;-60
2021/01/09 09:41:20;;;;;;;31.27;20.70;;;4.60;99.90;;;;;;5070940;28;20670;-61
2021/01/09 09:43:59;;;;;;;28.67;19.87;;;4.60;99.90;;;;;;5071034;28;20201;-62
2021/01/09 09:46:26;;;;;;;29.47;18.50;;;4.60;99.90;;;;;;5071112;28;20205;-61
2021/01/09 09:48:59;;;;;;;55.80;21.53;;;4.60;99.90;;;;;;5074852;28;20228;-62
2021/01/09 09:51:33;;;;;;;30.87;20.30;;;4.70;99.90;;;;;;5076081;28;20209;-62
2021/01/09 09:53:59;;;;;;;31.73;18.13;;;4.90;99.90;;;;;;5075654;28;20243;-62
2021/01/09 09:56:25;;;;;;;26.33;17.07;;;5.00;99.90;;;;;;5075359;28;20262;-62
2021/01/09 09:59:01;;;;;;;25.20;17.37;;;5.20;99.90;;;;;;5075003;28;20231;-62
2021/01/09 10:01:29;;;;;;;25.97;17.13;;;5.60;99.90;;;;;;5075492;28;20212;-62
2021/01/09 10:03:55;;;;;;;25.00;17.37;;;6.10;99.90;;;;;;5075442;28;20291;-63
2021/01/09 10:06:22;;;;;;;25.90;17.13;;;6.30;99.90;;;;;;5075590;28;20216;-63
2021/01/09 10:08:49;;;;;;;25.57;16.57;;;6.20;99.90;;;;;;5074466;28;20712;-61
2021/01/09 10:11:15;;;;;;;31.03;17.13;;;6.00;99.90;;;;;;5074817;28;20213;-61
2021/01/09 10:13:41;;;;;;;19.00;10.70;;;6.10;99.90;;;;;;5074253;28;20205;-62
2021/01/09 10:16:08;;;;;;;16.50;11.33;;;6.00;99.90;;;;;;5074458;28;20576;-62
2021/01/09 10:18:35;;;;;;;16.67;11.17;;;6.00;99.90;;;;;;5074228;28;20320;-63
2021/01/09 10:21:01;;;;;;;13.53;10.00;;;6.10;99.90;;;;;;5074630;28;20211;-63
2021/01/09 10:23:28;;;;;;;11.83;8.43;;;6.10;99.90;;;;;;5073774;28;20599;-63
2021/01/09 10:25:56;;;;;;;11.67;8.73;;;5.80;99.90;;;;;;5074273;28;20247;-62
2021/01/09 10:28:22;;;;;;;11.93;9.27;;;5.20;99.90;;;;;;5074229;28;20251;-62
2021/01/09 10:30:48;;;;;;;14.93;10.87;;;5.00;99.90;;;;;;5074361;28;20257;-63
2021/01/09 10:33:15;;;;;;;15.33;10.53;;;4.90;99.90;;;;;;5074183;28;20208;-63
2021/01/09 10:35:45;;;;;;;15.57;11.03;;;5.00;99.90;;;;;;5073887;28;20236;-63
2021/01/09 10:38:12;;;;;;;14.77;10.63;;;5.20;99.90;;;;;;5074093;28;20263;-62
2021/01/09 10:40:38;;;;;;;14.47;10.47;;;5.10;99.90;;;;;;5074516;28;20212;-62
2021/01/09 10:43:05;;;;;;;12.63;8.87;;;5.10;99.90;;;;;;5074280;28;20218;-62
2021/01/09 10:45:31;;;;;;;11.47;8.43;;;4.90;99.90;;;;;;5073826;28;20225;-62
2021/01/09 10:47:57;;;;;;;12.10;8.10;;;4.70;99.90;;;;;;5074125;28;20642;-62
2021/01/09 10:50:24;;;;;;;10.60;7.23;;;4.70;99.90;;;;;;5074238;28;20201;-62
2021/01/09 10:52:50;;;;;;;9.93;7.70;;;4.60;99.90;;;;;;5073771;28;20699;-62
2021/01/09 10:55:16;;;;;;;12.50;8.83;;;4.80;99.90;;;;;;5073513;28;20261;-62
2021/01/09 10:57:43;;;;;;;12.60;8.90;;;4.80;99.90;;;;;;5073493;28;20274;-63
2021/01/09 11:00:11;;;;;;;13.27;9.97;;;4.80;99.90;;;;;;5072749;28;20212;-63
2021/01/09 11:02:37;;;;;;;11.90;9.03;;;4.90;99.90;;;;;;5073715;28;20201;-64
2021/01/09 11:05:04;;;;;;;11.20;8.77;;;5.10;99.90;;;;;;5073292;28;20214;-63
2021/01/09 11:07:30;;;;;;;12.07;9.03;;;5.30;99.90;;;;;;5073687;28;20205;-62
2021/01/09 11:09:56;;;;;;;10.40;7.97;;;5.50;99.90;;;;;;5073097;28;20694;-62
2021/01/09 11:12:23;;;;;;;11.13;8.53;;;5.60;99.90;;;;;;5073628;28;20222;-62
2021/01/09 11:14:50;;;;;;;10.20;7.83;;;5.60;99.90;;;;;;5073121;28;20233;-63
2021/01/09 11:17:17;;;;;;;10.67;7.77;;;5.70;99.90;;;;;;5073309;28;20625;-62
2021/01/09 11:19:43;;;;;;;10.90;8.03;;;5.90;99.90;;;;;;5073174;28;20308;-62
2021/01/09 11:22:09;;;;;;;11.27;8.07;;;5.90;99.90;;;;;;5064636;28;20201;-60
2021/01/09 11:24:35;;;;;;;9.83;7.43;;;5.90;99.80;;;;;;5052454;28;20228;-57
2021/01/09 11:27:02;;;;;;;10.73;8.13;;;5.90;99.80;;;;;;5052992;28;20202;-59
2021/01/09 11:29:29;;;;;;;9.27;7.30;;;5.90;99.80;;;;;;5052520;28;20247;-61
2021/01/09 11:31:59;;;;;;;9.80;7.63;;;5.90;99.30;;;;;;5052849;28;20206;-61
2021/01/09 11:34:27;;;;;;;9.23;7.37;;;5.80;99.60;;;;;;5052863;28;20210;-61
2021/01/09 11:36:53;;;;;;;10.20;7.47;;;5.70;99.20;;;;;;5053247;28;20228;-62
2021/01/09 11:39:19;;;;;;;10.97;7.90;;;5.50;99.20;;;;;;5052783;28;20224;-61
2021/01/09 11:41:47;;;;;;;8.70;6.83;;;5.50;99.80;;;;;;5052713;28;20213;-60
2021/01/09 11:44:14;;;;;;;8.70;7.00;;;5.60;99.70;;;;;;5052065;28;20364;-61
2021/01/09 11:46:41;;;;;;;9.80;7.50;;;5.70;98.90;;;;;;5052688;28;20216;-61
2021/01/09 11:49:07;;;;;;;9.63;7.27;;;5.70;99.00;;;;;;5052305;28;20230;-61
2021/01/09 11:51:34;;;;;;;9.30;7.57;;;5.70;99.10;;;;;;5052866;28;20210;-59
2021/01/09 11:54:01;;;;;;;8.93;7.30;;;5.60;99.30;;;;;;5051986;28;20213;-62
2021/01/09 11:56:28;;;;;;;8.70;6.73;;;5.70;99.10;;;;;;5052740;28;20241;-59
2021/01/09 11:58:54;;;;;;;9.43;6.80;;;5.80;99.00;;;;;;5052566;28;20674;-59
2021/01/09 12:01:20;;;;;;;10.90;7.40;;;5.70;98.60;;;;;;5052897;28;20209;-60
2021/01/09 12:03:46;;;;;;;7.60;6.63;;;5.50;98.90;;;;;;5052244;28;20251;-60
2021/01/09 12:06:17;;;;;;;9.27;7.37;;;5.40;98.90;;;;;;5052410;28;20213;-63
2021/01/09 12:08:45;;;;;;;9.50;7.70;;;5.50;98.70;;;;;;5052288;28;20316;-60
2021/01/09 12:11:11;;;;;;;8.83;7.13;;;5.50;98.80;;;;;;5052161;28;20206;-62
2021/01/09 12:13:38;;;;;;;9.07;7.63;;;5.60;98.50;;;;;;5051865;28;20202;-59
2021/01/09 12:16:06;;;;;;;9.53;7.87;;;5.40;98.90;;;;;;5052387;28;20570;-59
2021/01/09 12:18:32;;;;;;;9.40;7.23;;;5.30;99.00;;;;;;5051812;28;20248;-60
2021/01/09 12:20:59;;;;;;;9.17;7.07;;;5.20;99.10;;;;;;5052038;28;20219;-60
2021/01/09 12:23:25;;;;;;;9.50;7.53;;;5.00;99.70;;;;;;5051323;28;20708;-60
2021/01/09 12:25:52;;;;;;;8.80;7.10;;;4.90;99.40;;;;;;5051970;28;20237;-60
2021/01/09 12:28:19;;;;;;;9.60;7.47;;;4.90;99.30;;;;;;5051722;28;20291;-64
2021/01/09 12:30:48;;;;;;;13.00;7.73;;;4.80;98.90;;;;;;5052299;28;20205;-60
2021/01/09 12:33:14;;;;;;;10.53;7.20;;;4.80;99.10;;;;;;5052044;28;20205;-61
2021/01/09 12:35:40;;;;;;;9.10;6.70;;;4.80;99.00;;;;;;5051538;28;20627;-60
2021/01/09 12:38:07;;;;;;;9.80;7.50;;;4.80;99.00;;;;;;5051774;28;20230;-60
2021/01/09 12:40:35;;;;;;;12.53;9.73;;;4.90;99.30;;;;;;5052424;28;20216;-61